Time;durP1;ratioP1;P1;durP2;ratioP2;P2;SDS_P1;SDS_P2;PMS_P1;PMS_P2;Temp;Humidity;BMP_temperature;BMP_pressure;BME280_temperature;BME280_humidity;BME280_pressure;Samples;Min_cycle;Max_cycle;Signal;HPM_P1;HPM_P2
2024/01/02 00:00:00;;;;;;;11.90;4.37;;;6.40;99.90;;;;;;5113072;28;20200;-70
2024/01/02 00:02:26;;;;;;;9.43;5.20;;;6.30;99.90;;;;;;5113093;28;20196;-71
2024/01/02 00:04:52;;;;;;;13.00;4.83;;;6.30;99.90;;;;;;5109602;28;20173;-70
2024/01/02 00:07:18;;;;;;;8.40;4.40;;;6.30;99.90;;;;;;5112657;28;20446;-69
2024/01/02 00:09:43;;;;;;;10.83;4.50;;;6.30;99.90;;;;;;5113040;28;20161;-69
2024/01/02 00:12:09;;;;;;;11.23;4.83;;;6.20;99.90;;;;;;5089298;28;20697;-72
2024/01/02 00:14:35;;;;;;;15.10;4.80;;;6.10;99.90;;;;;;5069952;28;20178;-69
2024/01/02 00:17:01;;;;;;;13.30;5.63;;;6.10;99.90;;;;;;5070578;28;20413;-72
2024/01/02 00:19:26;;;;;;;6.50;4.23;;;6.10;99.90;;;;;;5104505;28;20173;-70
2024/01/02 00:21:52;;;;;;;12.40;5.10;;;6.00;99.90;;;;;;5092450;28;20165;-69
2024/01/02 00:24:18;;;;;;;11.00;5.40;;;6.00;99.90;;;;;;5091161;28;20630;-70
2024/01/02 00:26:44;;;;;;;12.97;4.30;;;6.00;99.90;;;;;;5091507;28;20188;-70
2024/01/02 00:29:10;;;;;;;17.17;4.63;;;6.00;99.90;;;;;;5092474;28;20451;-70
2024/01/02 00:31:35;;;;;;;8.43;4.60;;;6.00;99.90;;;;;;5091954;28;20307;-69
2024/01/02 00:34:01;;;;;;;9.60;4.33;;;5.90;99.90;;;;;;5091922;28;20165;-69
2024/01/02 00:36:27;;;;;;;13.43;3.67;;;5.80;99.90;;;;;;5073994;28;20174;-71
2024/01/02 00:38:52;;;;;;;9.50;4.83;;;5.90;99.90;;;;;;5072313;28;20186;-70
2024/01/02 00:41:18;;;;;;;9.23;4.43;;;5.80;99.90;;;;;;5072113;28;20623;-72
2024/01/02 00:43:44;;;;;;;8.13;4.20;;;5.80;99.90;;;;;;5075195;28;20626;-74
2024/01/02 00:46:10;;;;;;;10.93;4.20;;;5.90;99.90;;;;;;5111658;28;20173;-71
2024/01/02 00:48:36;;;;;;;14.47;5.80;;;5.90;99.90;;;;;;5107442;28;20204;-70
2024/01/02 00:51:04;;;;;;;10.53;5.40;;;5.90;99.90;;;;;;5082251;28;20823;-71
2024/01/02 00:53:30;;;;;;;9.80;3.50;;;5.80;99.90;;;;;;5095747;28;20396;-70
2024/01/02 00:55:56;;;;;;;10.60;4.73;;;5.80;99.90;;;;;;5094966;28;20725;-71
2024/01/02 00:58:22;;;;;;;8.03;4.80;;;5.80;99.90;;;;;;5095714;28;20235;-72
2024/01/02 01:00:47;;;;;;;16.37;4.40;;;5.80;99.90;;;;;;5095590;28;20185;-70
2024/01/02 01:03:13;;;;;;;6.83;4.37;;;5.80;99.90;;;;;;5095481;28;20173;-70
2024/01/02 01:05:39;;;;;;;9.63;5.20;;;5.70;99.90;;;;;;5103082;28;20173;-71
2024/01/02 01:08:05;;;;;;;8.33;4.23;;;5.70;99.90;;;;;;5115387;28;20197;-72
2024/01/02 01:10:30;;;;;;;13.90;4.40;;;5.70;99.90;;;;;;5115466;28;20175;-70
2024/01/02 01:12:56;;;;;;;18.57;4.90;;;5.60;99.90;;;;;;5111727;28;20460;-71
2024/01/02 01:15:22;;;;;;;9.60;5.50;;;5.60;99.90;;;;;;5094634;28;20162;-70
2024/01/02 01:17:47;;;;;;;17.10;3.83;;;5.60;99.90;;;;;;5094043;28;20523;-71
2024/01/02 01:20:13;;;;;;;10.30;4.60;;;5.50;99.90;;;;;;5094319;28;20188;-71
2024/01/02 01:22:39;;;;;;;10.20;4.97;;;5.50;99.90;;;;;;5094863;28;20234;-70
2024/01/02 01:25:05;;;;;;;14.43;4.03;;;5.50;99.90;;;;;;5094470;28;20634;-72
2024/01/02 01:27:31;;;;;;;11.20;4.23;;;5.50;99.90;;;;;;5094770;28;20462;-70
2024/01/02 01:29:56;;;;;;;12.37;4.50;;;5.40;99.90;;;;;;5095059;28;20456;-71
2024/01/02 01:32:22;;;;;;;7.63;4.83;;;5.40;99.90;;;;;;5093729;28;20499;-73
2024/01/02 01:34:48;;;;;;;17.60;4.97;;;5.40;99.90;;;;;;5093830;28;20231;-71
2024/01/02 01:37:13;;;;;;;10.20;5.27;;;5.40;99.90;;;;;;5093369;28;20256;-70
2024/01/02 01:39:39;;;;;;;11.50;5.63;;;5.40;99.90;;;;;;5094006;28;20592;-73
2024/01/02 01:42:05;;;;;;;24.93;4.40;;;5.40;99.90;;;;;;5093405;28;20177;-72
2024/01/02 01:44:31;;;;;;;8.57;5.00;;;5.40;99.90;;;;;;5093620;28;20407;-80
2024/01/02 01:46:57;;;;;;;9.10;4.87;;;5.30;99.90;;;;;;5094047;28;20170;-71
2024/01/02 01:49:23;;;;;;;7.27;4.47;;;5.30;99.90;;;;;;5094389;28;20448;-71
2024/01/02 01:51:50;;;;;;;12.97;5.53;;;5.20;99.90;;;;;;5082053;28;20499;-71
2024/01/02 01:54:16;;;;;;;8.70;4.87;;;5.20;99.90;;;;;;5074606;28;20158;-71
2024/01/02 01:56:43;;;;;;;8.77;4.87;;;5.20;99.90;;;;;;5072219;28;20408;-74
2024/01/02 01:59:12;;;;;;;9.90;5.57;;;5.20;99.90;;;;;;5072748;28;20956;-71
2024/01/02 02:01:38;;;;;;;20.27;5.17;;;5.20;99.90;;;;;;5073766;28;20423;-72
2024/01/02 02:04:04;;;;;;;12.23;5.17;;;5.20;99.90;;;;;;5073035;28;20416;-71
2024/01/02 02:06:30;;;;;;;8.53;4.03;;;5.20;99.90;;;;;;5079771;28;20412;-71
2024/01/02 02:08:56;;;;;;;17.93;4.87;;;5.10;99.90;;;;;;5090995;28;20508;-72
2024/01/02 02:11:21;;;;;;;7.50;5.20;;;5.10;99.90;;;;;;5090988;28;20177;-72
2024/01/02 02:13:48;;;;;;;8.90;4.73;;;5.10;99.90;;;;;;5094387;28;20166;-71
2024/01/02 02:16:16;;;;;;;21.27;6.43;;;5.10;99.90;;;;;;5092838;28;20177;-73
2024/01/02 02:18:42;;;;;;;12.80;5.93;;;5.10;99.90;;;;;;5093645;28;20427;-71
2024/01/02 02:21:08;;;;;;;15.70;6.10;;;5.20;99.90;;;;;;5094689;28;21849;-71
2024/01/02 02:23:34;;;;;;;13.23;5.90;;;5.10;99.90;;;;;;5114705;28;20169;-72
2024/01/02 02:25:59;;;;;;;15.10;6.50;;;5.10;99.90;;;;;;5113581;28;20169;-71
2024/01/02 02:28:25;;;;;;;20.43;7.20;;;5.20;99.90;;;;;;5112757;28;20611;-72
2024/01/02 02:30:51;;;;;;;13.83;6.43;;;5.20;99.90;;;;;;5114465;28;20192;-71
2024/01/02 02:33:16;;;;;;;6.43;5.73;;;5.20;99.90;;;;;;5112982;28;20407;-71
2024/01/02 02:35:42;;;;;;;16.03;7.87;;;5.30;99.90;;;;;;5111948;28;20637;-72
2024/01/02 02:38:08;;;;;;;15.00;7.87;;;5.30;99.90;;;;;;5113795;28;20246;-71
2024/01/02 02:40:34;;;;;;;15.37;7.10;;;5.30;99.90;;;;;;5112791;28;20637;-71
2024/01/02 02:42:59;;;;;;;18.40;7.13;;;5.30;99.90;;;;;;5101788;28;20204;-72
2024/01/02 02:45:27;;;;;;;20.17;7.70;;;5.30;99.90;;;;;;5092541;28;20438;-76
2024/01/02 02:47:53;;;;;;;17.63;7.80;;;5.30;99.90;;;;;;5092329;28;20300;-71
2024/01/02 02:50:19;;;;;;;14.00;7.43;;;5.30;99.90;;;;;;5093801;28;20495;-71
2024/01/02 02:52:44;;;;;;;16.83;8.87;;;5.40;99.90;;;;;;5109267;28;20172;-72
2024/01/02 02:55:10;;;;;;;14.37;7.90;;;5.30;99.90;;;;;;5112514;28;20165;-75
2024/01/02 02:57:36;;;;;;;26.07;8.80;;;5.40;99.90;;;;;;5113532;28;20549;-71
2024/01/02 03:00:03;;;;;;;14.87;8.57;;;5.40;99.90;;;;;;5113871;28;20495;-71
2024/01/02 03:02:29;;;;;;;21.17;9.47;;;5.50;99.90;;;;;;5113811;28;20188;-72
2024/01/02 03:04:55;;;;;;;29.40;9.50;;;5.50;99.90;;;;;;5088434;28;20909;-71
2024/01/02 03:07:21;;;;;;;21.10;8.20;;;5.50;99.90;;;;;;5084907;28;20435;-71
2024/01/02 03:09:46;;;;;;;29.07;9.50;;;5.50;99.90;;;;;;5093385;28;20627;-73
2024/01/02 03:12:12;;;;;;;16.00;7.60;;;5.50;99.90;;;;;;5093193;28;20276;-71
2024/01/02 03:14:39;;;;;;;22.67;8.77;;;5.40;99.90;;;;;;5090985;28;20214;-72
2024/01/02 03:17:04;;;;;;;22.43;8.43;;;5.50;99.90;;;;;;5093195;28;20745;-73
2024/01/02 03:19:30;;;;;;;17.07;7.90;;;5.40;99.90;;;;;;5093180;28;20399;-73
2024/01/02 03:21:56;;;;;;;20.17;8.60;;;5.40;99.90;;;;;;5102109;28;20560;-72
2024/01/02 03:24:22;;;;;;;27.70;8.40;;;5.40;99.90;;;;;;5113299;28;20420;-73
2024/01/02 03:26:48;;;;;;;21.53;7.80;;;5.40;99.90;;;;;;5112585;28;20179;-71
2024/01/02 03:29:16;;;;;;;17.57;9.10;;;5.40;99.90;;;;;;5113209;28;20537;-72
2024/01/02 03:31:42;;;;;;;16.60;8.23;;;5.30;99.90;;;;;;5111436;28;20414;-72
2024/01/02 03:34:08;;;;;;;16.27;7.97;;;5.30;99.90;;;;;;5092601;28;20406;-73
2024/01/02 03:36:34;;;;;;;15.60;7.40;;;5.30;99.90;;;;;;5095784;28;20398;-72
2024/01/02 03:38:59;;;;;;;18.07;8.77;;;5.20;99.90;;;;;;5113484;28;20703;-72
2024/01/02 03:41:25;;;;;;;17.93;8.27;;;5.20;99.90;;;;;;5112273;28;20267;-73
2024/01/02 03:43:51;;;;;;;14.87;8.20;;;5.20;99.90;;;;;;5112925;28;20219;-72
2024/01/02 03:46:16;;;;;;;25.90;9.20;;;5.10;99.90;;;;;;5112405;28;20168;-71
2024/01/02 03:48:42;;;;;;;15.23;7.37;;;5.10;99.90;;;;;;5112591;28;20196;-73
2024/01/02 03:51:08;;;;;;;19.30;8.73;;;5.10;99.90;;;;;;5110503;28;20188;-71
2024/01/02 03:53:33;;;;;;;21.30;7.57;;;5.10;99.90;;;;;;5113139;28;20633;-74
2024/01/02 03:55:59;;;;;;;14.03;6.87;;;5.10;99.90;;;;;;5112346;28;20176;-72
2024/01/02 03:58:25;;;;;;;30.73;7.60;;;5.00;99.90;;;;;;5112968;28;20188;-73
2024/01/02 04:00:53;;;;;;;14.50;7.10;;;5.00;99.90;;;;;;5100496;28;20169;-71
2024/01/02 04:03:20;;;;;;;13.80;6.60;;;5.10;99.90;;;;;;5092680;28;20170;-71
2024/01/02 04:05:46;;;;;;;9.73;7.27;;;5.10;99.90;;;;;;5091599;28;20888;-72
2024/01/02 04:08:11;;;;;;;15.50;8.63;;;5.10;99.90;;;;;;5109557;28;20503;-73
2024/01/02 04:10:39;;;;;;;22.57;6.90;;;5.00;99.90;;;;;;5111706;28;20243;-72
2024/01/02 04:13:04;;;;;;;13.80;8.10;;;5.00;99.90;;;;;;5112897;28;20623;-72
2024/01/02 04:15:30;;;;;;;17.47;8.40;;;5.00;99.90;;;;;;5112263;28;20430;-72
2024/01/02 04:17:56;;;;;;;12.50;7.63;;;4.90;99.90;;;;;;5111696;28;20452;-72
2024/01/02 04:20:22;;;;;;;16.27;7.80;;;4.90;99.90;;;;;;5073511;28;20170;-74
2024/01/02 04:22:49;;;;;;;20.80;7.27;;;4.90;99.90;;;;;;5105264;28;20181;-71
2024/01/02 04:25:15;;;;;;;25.87;11.10;;;4.90;99.90;;;;;;5111625;28;20164;-71
2024/01/02 04:27:41;;;;;;;11.80;7.43;;;4.90;99.90;;;;;;5113690;28;20513;-74
2024/01/02 04:30:07;;;;;;;14.30;7.67;;;4.90;99.90;;;;;;5074597;28;20232;-71
2024/01/02 04:32:33;;;;;;;16.97;7.43;;;4.90;99.90;;;;;;5075955;28;20559;-72
2024/01/02 04:34:59;;;;;;;12.10;6.77;;;4.80;99.90;;;;;;5075245;28;20453;-71
2024/01/02 04:37:25;;;;;;;25.57;8.70;;;4.80;99.90;;;;;;5097630;28;20188;-72
2024/01/02 04:39:51;;;;;;;13.47;6.83;;;4.80;99.90;;;;;;5116131;28;20759;-71
2024/01/02 04:42:16;;;;;;;12.90;6.90;;;4.80;99.90;;;;;;5114787;28;20172;-73
2024/01/02 04:44:42;;;;;;;16.73;7.27;;;4.80;99.90;;;;;;5115179;28;20164;-72
2024/01/02 04:47:08;;;;;;;20.43;8.87;;;4.80;99.90;;;;;;5115019;28;20200;-72
2024/01/02 04:49:33;;;;;;;22.17;8.17;;;4.80;99.90;;;;;;5116262;28;20184;-72
2024/01/02 04:51:59;;;;;;;19.97;6.80;;;4.80;99.90;;;;;;5107728;28;20222;-72
2024/01/02 04:54:25;;;;;;;13.37;7.20;;;4.80;99.90;;;;;;5116127;28;20218;-72
2024/01/02 04:56:51;;;;;;;19.33;7.90;;;4.70;99.90;;;;;;5104928;28;20173;-75
2024/01/02 04:59:17;;;;;;;10.33;6.93;;;4.80;99.90;;;;;;5094159;28;20788;-72
2024/01/02 05:01:43;;;;;;;10.77;6.67;;;4.70;99.90;;;;;;5095832;28;20212;-73
2024/01/02 05:04:09;;;;;;;11.97;6.00;;;4.70;99.90;;;;;;5095296;28;20638;-74
2024/01/02 05:06:35;;;;;;;16.03;7.10;;;4.70;99.90;;;;;;5098583;28;20179;-74
2024/01/02 05:09:00;;;;;;;18.60;6.80;;;4.70;99.90;;;;;;5115799;28;20461;-73
2024/01/02 05:11:26;;;;;;;13.07;7.43;;;4.70;99.90;;;;;;5114692;28;20178;-71
2024/01/02 05:13:52;;;;;;;10.10;6.93;;;4.70;99.90;;;;;;5115888;28;20204;-73
2024/01/02 05:16:17;;;;;;;9.30;7.40;;;4.70;99.90;;;;;;5114617;28;20172;-72
2024/01/02 05:18:43;;;;;;;10.73;7.07;;;4.70;99.90;;;;;;5115500;28;20370;-73
2024/01/02 05:21:10;;;;;;;7.30;6.30;;;4.70;99.90;;;;;;5110830;28;20180;-75
2024/01/02 05:23:36;;;;;;;14.20;7.27;;;4.70;99.90;;;;;;5095315;28;20887;-73
2024/01/02 05:26:02;;;;;;;10.83;5.90;;;4.80;99.90;;;;;;5093670;28;20418;-72
2024/01/02 05:28:29;;;;;;;13.40;5.97;;;4.80;99.90;;;;;;5094796;28;20288;-74
2024/01/02 05:30:54;;;;;;;11.77;6.40;;;4.80;99.90;;;;;;5094056;28;20923;-72
2024/01/02 05:33:20;;;;;;;23.90;7.53;;;4.70;99.90;;;;;;5094227;28;20418;-73
2024/01/02 05:35:45;;;;;;;11.23;5.97;;;4.70;99.90;;;;;;5090438;28;20653;-72
2024/01/02 05:38:11;;;;;;;14.90;6.57;;;4.70;99.90;;;;;;5072669;28;20657;-73
2024/01/02 05:40:37;;;;;;;17.80;6.97;;;4.70;99.90;;;;;;5074649;28;20166;-72
2024/01/02 05:43:03;;;;;;;18.60;6.70;;;4.70;99.90;;;;;;5074786;28;20622;-74
2024/01/02 05:45:28;;;;;;;26.43;7.13;;;4.70;99.90;;;;;;5073756;28;20178;-71
2024/01/02 05:47:54;;;;;;;9.73;5.67;;;4.60;99.90;;;;;;5074413;28;20218;-73
2024/01/02 05:50:20;;;;;;;18.50;7.17;;;4.60;99.90;;;;;;5075367;28;20167;-75
2024/01/02 05:52:46;;;;;;;19.10;6.27;;;4.60;99.90;;;;;;5113594;28;20667;-72
2024/01/02 05:55:11;;;;;;;13.73;6.10;;;4.60;99.90;;;;;;5114004;28;20548;-74
2024/01/02 05:57:37;;;;;;;11.33;6.40;;;4.60;99.90;;;;;;5114661;28;20806;-72
2024/01/02 06:00:03;;;;;;;10.60;5.73;;;4.60;99.90;;;;;;5115170;28;20172;-71
2024/01/02 06:02:29;;;;;;;12.43;7.03;;;4.60;99.90;;;;;;5115022;28;20168;-71
2024/01/02 06:04:54;;;;;;;10.83;6.13;;;4.60;99.90;;;;;;5113943;28;20737;-72
2024/01/02 06:07:20;;;;;;;11.53;6.70;;;4.60;99.90;;;;;;5113498;28;20200;-72
2024/01/02 06:09:46;;;;;;;10.30;6.23;;;4.60;99.90;;;;;;5102546;28;20182;-71
2024/01/02 06:12:11;;;;;;;11.40;5.33;;;4.60;99.90;;;;;;5092851;28;20177;-73
2024/01/02 06:14:38;;;;;;;9.80;5.50;;;4.70;99.90;;;;;;5083228;28;20174;-72
2024/01/02 06:17:03;;;;;;;19.50;6.80;;;4.60;99.90;;;;;;5079642;28;20174;-74
2024/01/02 06:19:29;;;;;;;16.53;5.97;;;4.60;99.90;;;;;;5074517;28;20405;-72
2024/01/02 06:21:55;;;;;;;19.77;6.80;;;4.60;99.90;;;;;;5102204;28;20183;-74
2024/01/02 06:24:21;;;;;;;12.90;6.43;;;4.70;99.90;;;;;;5114448;28;20398;-74
2024/01/02 06:26:47;;;;;;;12.00;5.37;;;4.70;99.90;;;;;;5111936;28;20513;-75
2024/01/02 06:29:13;;;;;;;13.07;7.60;;;4.60;99.90;;;;;;5114031;28;20204;-73
2024/01/02 06:31:38;;;;;;;12.93;6.67;;;4.70;99.90;;;;;;5114294;28;20157;-73
2024/01/02 06:34:04;;;;;;;13.57;6.70;;;4.70;99.90;;;;;;5111733;28;20173;-75
2024/01/02 06:36:30;;;;;;;12.57;6.20;;;4.60;99.90;;;;;;5102938;28;20218;-72
2024/01/02 06:38:55;;;;;;;13.20;7.40;;;4.60;99.90;;;;;;5093776;28;20646;-71
2024/01/02 06:41:21;;;;;;;12.73;6.60;;;4.60;99.90;;;;;;5093835;28;20204;-73
2024/01/02 06:43:47;;;;;;;16.93;7.43;;;4.60;99.90;;;;;;5093688;28;20165;-76
2024/01/02 06:46:13;;;;;;;11.70;6.37;;;4.60;99.90;;;;;;5091348;28;20180;-72
2024/01/02 06:48:41;;;;;;;12.57;6.83;;;4.50;99.90;;;;;;5095908;28;20195;-73
2024/01/02 06:51:07;;;;;;;12.60;6.17;;;4.50;99.90;;;;;;5109852;28;20203;-72
2024/01/02 06:53:32;;;;;;;12.23;6.70;;;4.50;99.90;;;;;;5093264;28;20438;-73
2024/01/02 06:55:58;;;;;;;14.10;5.80;;;4.60;99.90;;;;;;5092310;28;20168;-72
2024/01/02 06:58:24;;;;;;;23.17;6.13;;;4.60;99.90;;;;;;5093539;28;20603;-73
2024/01/02 07:00:50;;;;;;;12.63;6.00;;;4.50;99.90;;;;;;5093553;28;20414;-72
2024/01/02 07:03:17;;;;;;;15.77;5.70;;;4.60;99.90;;;;;;5105510;28;20563;-74
2024/01/02 07:05:42;;;;;;;14.97;7.60;;;4.60;99.90;;;;;;5112581;28;20485;-73
2024/01/02 07:08:08;;;;;;;10.33;5.60;;;4.60;99.90;;;;;;5078091;28;20554;-73
2024/01/02 07:10:34;;;;;;;18.03;5.57;;;4.70;99.90;;;;;;5071767;28;20189;-73
2024/01/02 07:12:59;;;;;;;13.37;5.00;;;4.70;99.90;;;;;;5072069;28;20735;-73
2024/01/02 07:15:25;;;;;;;8.07;5.37;;;4.70;99.90;;;;;;5070704;28;20264;-73
2024/01/02 07:17:51;;;;;;;18.13;4.83;;;4.70;99.90;;;;;;5072927;28;20189;-72
2024/01/02 07:20:16;;;;;;;19.97;5.17;;;4.70;99.90;;;;;;5072815;28;20170;-74
2024/01/02 07:22:42;;;;;;;14.03;7.10;;;4.70;99.90;;;;;;5087601;28;20201;-73
2024/01/02 07:25:08;;;;;;;10.13;5.23;;;4.70;99.90;;;;;;5091965;28;20191;-72
2024/01/02 07:27:34;;;;;;;9.50;5.37;;;4.70;99.90;;;;;;5092609;28;20251;-72
2024/01/02 07:30:00;;;;;;;6.90;4.90;;;4.70;99.90;;;;;;5093023;28;20502;-73
2024/01/02 07:32:25;;;;;;;15.63;5.33;;;4.70;99.90;;;;;;5092914;28;20243;-74
2024/01/02 07:34:51;;;;;;;13.53;5.13;;;4.70;99.90;;;;;;5099948;28;20510;-73
2024/01/02 07:37:17;;;;;;;17.70;5.70;;;4.70;99.90;;;;;;5096135;28;20186;-72
2024/01/02 07:39:43;;;;;;;17.63;6.33;;;4.70;99.90;;;;;;5072406;28;20171;-72
2024/01/02 07:42:09;;;;;;;10.70;5.70;;;4.70;99.90;;;;;;5071296;28;20213;-72
2024/01/02 07:44:35;;;;;;;10.63;5.03;;;4.70;99.90;;;;;;5070377;28;20506;-72
2024/01/02 07:47:01;;;;;;;10.20;5.67;;;4.70;99.90;;;;;;5072692;28;20518;-74
2024/01/02 07:49:27;;;;;;;19.23;5.00;;;4.70;99.90;;;;;;5071264;28;20201;-75
2024/01/02 07:51:54;;;;;;;11.03;5.93;;;4.70;99.90;;;;;;5079445;28;20896;-72
2024/01/02 07:54:20;;;;;;;15.83;5.77;;;4.80;99.90;;;;;;5092951;28;20161;-73
2024/01/02 07:56:45;;;;;;;13.27;5.77;;;4.80;99.90;;;;;;5091679;28;20411;-71
2024/01/02 07:59:15;;;;;;;11.53;5.07;;;4.80;99.90;;;;;;5091149;28;20429;-72
2024/01/02 08:01:41;;;;;;;14.30;4.27;;;4.80;99.90;;;;;;5094610;28;20199;-72
2024/01/02 08:04:06;;;;;;;19.23;5.80;;;4.80;99.90;;;;;;5114400;28;20465;-73
2024/01/02 08:06:32;;;;;;;8.43;5.23;;;4.80;99.90;;;;;;5115142;28;20442;-73
2024/01/02 08:08:58;;;;;;;13.10;5.23;;;4.80;99.90;;;;;;5096618;28;20354;-73
2024/01/02 08:11:24;;;;;;;10.00;5.50;;;4.80;99.90;;;;;;5096717;28;20169;-73
2024/01/02 08:13:50;;;;;;;13.57;5.07;;;4.90;99.90;;;;;;5096700;28;20756;-72
2024/01/02 08:16:15;;;;;;;11.67;4.97;;;4.90;99.90;;;;;;5092444;28;20176;-73
2024/01/02 08:18:41;;;;;;;10.03;4.13;;;4.90;99.90;;;;;;5095891;28;20274;-73
2024/01/02 08:21:08;;;;;;;6.50;4.47;;;4.90;99.90;;;;;;5096093;28;20199;-73
2024/01/02 08:23:35;;;;;;;7.67;3.90;;;4.90;99.90;;;;;;5094810;28;20502;-72
2024/01/02 08:26:02;;;;;;;12.23;4.57;;;4.90;99.90;;;;;;5095260;28;21102;-72
2024/01/02 08:28:28;;;;;;;9.70;4.77;;;5.00;99.90;;;;;;5096184;28;20450;-75
2024/01/02 08:30:54;;;;;;;5.00;4.27;;;5.00;99.90;;;;;;5103885;28;20429;-74
2024/01/02 08:33:19;;;;;;;12.83;4.97;;;5.00;99.90;;;;;;5100339;28;20173;-72
2024/01/02 08:35:45;;;;;;;10.73;4.07;;;5.00;99.90;;;;;;5095120;28;20718;-74
2024/01/02 08:38:10;;;;;;;10.70;5.00;;;5.00;99.90;;;;;;5096000;28;20726;-74
2024/01/02 08:40:36;;;;;;;11.67;5.20;;;5.00;99.90;;;;;;5096186;28;20188;-73
2024/01/02 08:43:02;;;;;;;11.93;4.03;;;5.00;99.90;;;;;;5096228;28;20173;-73
2024/01/02 08:45:28;;;;;;;8.83;4.53;;;5.00;99.90;;;;;;5094214;28;20530;-73
2024/01/02 08:47:53;;;;;;;13.93;6.43;;;5.00;99.90;;;;;;5095835;28;20201;-73
2024/01/02 08:50:19;;;;;;;18.50;5.50;;;5.00;99.90;;;;;;5095942;28;20169;-73
2024/01/02 08:52:47;;;;;;;10.77;4.90;;;5.00;99.90;;;;;;5096282;28;20182;-74
2024/01/02 08:55:14;;;;;;;13.20;4.50;;;5.00;99.90;;;;;;5094276;28;20668;-73
2024/01/02 08:57:40;;;;;;;18.53;4.63;;;5.00;99.90;;;;;;5095554;28;20466;-74
2024/01/02 09:00:08;;;;;;;7.90;4.13;;;5.00;99.90;;;;;;5095528;28;20419;-73
2024/01/02 09:02:34;;;;;;;16.00;4.57;;;4.90;99.90;;;;;;5094428;28;20412;-72
2024/01/02 09:04:59;;;;;;;10.73;4.20;;;5.00;99.90;;;;;;5094550;28;20464;-73
2024/01/02 09:07:25;;;;;;;16.07;5.10;;;5.00;99.90;;;;;;5104470;28;20204;-73
2024/01/02 09:09:51;;;;;;;9.30;4.87;;;5.10;99.90;;;;;;5115692;28;20244;-73
2024/01/02 09:12:17;;;;;;;11.77;4.43;;;5.10;99.90;;;;;;5114851;28;20199;-73
2024/01/02 09:14:42;;;;;;;12.70;4.70;;;5.00;99.90;;;;;;5114971;28;20223;-73
2024/01/02 09:17:08;;;;;;;10.57;4.23;;;5.00;99.90;;;;;;5114366;28;20192;-75
2024/01/02 09:19:34;;;;;;;11.20;3.83;;;5.00;99.90;;;;;;5115940;28;20254;-73
2024/01/02 09:22:00;;;;;;;6.07;3.63;;;5.10;99.90;;;;;;5105905;28;20176;-73
2024/01/02 09:24:26;;;;;;;12.70;4.27;;;5.00;99.90;;;;;;5095072;28;20289;-75
2024/01/02 09:26:56;;;;;;;12.67;4.33;;;5.00;99.90;;;;;;5094407;28;20423;-73
2024/01/02 09:29:23;;;;;;;10.70;4.07;;;5.00;99.90;;;;;;5080323;28;20323;-73
2024/01/02 09:31:49;;;;;;;11.73;3.50;;;5.00;99.90;;;;;;5074842;28;20495;-73
2024/01/02 09:34:14;;;;;;;16.83;4.80;;;5.00;99.90;;;;;;5075002;28;20495;-74
2024/01/02 09:36:41;;;;;;;9.27;4.27;;;5.00;99.90;;;;;;5081428;28;20169;-73
2024/01/02 09:39:06;;;;;;;4.33;3.90;;;5.00;99.90;;;;;;5111066;28;20681;-75
2024/01/02 09:41:56;;;;;;;7.20;4.90;;;5.00;99.90;;;;;;5115465;28;20413;-73
2024/01/02 09:44:35;;;;;;;5.73;4.00;;;5.00;99.90;;;;;;5115152;28;20250;-75
2024/01/02 09:47:33;;;;;;;11.90;4.70;;;5.00;99.90;;;;;;5111929;28;20817;-72
2024/01/02 09:50:33;;;;;;;7.13;3.50;;;5.10;99.90;;;;;;5089283;27;20788;-73
2024/01/02 09:53:17;;;;;;;3.93;3.43;;;5.10;99.90;;;;;;5100011;28;20427;-73
2024/01/02 09:56:08;;;;;;;12.03;4.30;;;5.20;99.90;;;;;;5114529;28;20422;-72
2024/01/02 09:58:53;;;;;;;8.53;4.27;;;5.20;99.90;;;;;;5115269;28;20486;-73
2024/01/02 10:01:56;;;;;;;9.10;4.43;;;5.30;99.90;;;;;;5115301;28;20406;-73
2024/01/02 10:04:46;;;;;;;11.33;3.73;;;5.30;99.90;;;;;;5094183;28;20416;-73
2024/01/02 10:07:43;;;;;;;7.93;4.60;;;5.30;99.90;;;;;;5079895;28;20437;-73
2024/01/02 10:10:18;;;;;;;18.60;4.00;;;5.30;99.90;;;;;;5093342;28;20430;-72
2024/01/02 10:13:30;;;;;;;7.17;3.10;;;5.30;99.90;;;;;;5094693;28;20901;-73
2024/01/02 10:16:01;;;;;;;7.67;3.87;;;5.40;99.90;;;;;;5093816;28;20410;-73
2024/01/02 10:18:30;;;;;;;8.97;4.03;;;5.40;99.90;;;;;;5101634;28;20449;-73
2024/01/02 10:21:36;;;;;;;8.57;3.93;;;5.50;99.90;;;;;;5114355;28;20513;-73
2024/01/02 10:24:27;;;;;;;7.47;3.73;;;5.50;99.90;;;;;;5049785;28;20420;-73
2024/01/02 10:27:09;;;;;;;7.70;4.10;;;5.50;99.90;;;;;;5073823;28;20440;-75
2024/01/02 10:29:53;;;;;;;9.17;3.80;;;5.50;99.90;;;;;;5098014;28;20459;-74
2024/01/02 10:32:36;;;;;;;7.83;3.93;;;5.40;99.90;;;;;;5073814;28;20400;-73
2024/01/02 10:35:31;;;;;;;4.83;4.13;;;5.40;99.90;;;;;;5073170;28;20399;-73
2024/01/02 10:38:18;;;;;;;8.10;4.67;;;5.50;99.90;;;;;;5081391;28;20791;-74
2024/01/02 10:40:55;;;;;;;6.23;3.83;;;5.40;99.90;;;;;;5113966;28;20498;-75
2024/01/02 10:43:30;;;;;;;4.70;3.30;;;5.40;99.90;;;;;;5114189;28;20414;-73
2024/01/02 10:46:22;;;;;;;10.73;4.07;;;5.30;99.90;;;;;;5113553;28;20416;-74
2024/01/02 10:48:59;;;;;;;5.37;4.87;;;5.30;99.90;;;;;;5114056;28;20442;-75
2024/01/02 10:51:38;;;;;;;3.23;2.93;;;5.30;99.90;;;;;;5114078;28;20404;-73
2024/01/02 10:54:05;;;;;;;6.03;3.90;;;5.30;99.90;;;;;;5077463;28;20397;-74
2024/01/02 10:56:45;;;;;;;5.53;3.50;;;5.30;99.90;;;;;;5085880;28;20413;-73
2024/01/02 10:59:27;;;;;;;4.37;3.23;;;5.30;99.90;;;;;;5091623;28;20988;-76
2024/01/02 11:02:05;;;;;;;6.40;3.40;;;5.40;99.90;;;;;;5093398;28;20377;-74
2024/01/02 11:04:48;;;;;;;3.40;3.10;;;5.40;99.90;;;;;;5093219;28;20448;-80
2024/01/02 11:07:17;;;;;;;3.40;3.00;;;5.40;99.90;;;;;;5098704;28;20422;-74
2024/01/02 11:09:56;;;;;;;3.90;3.60;;;5.40;99.90;;;;;;5112424;28;20897;-75
2024/01/02 11:12:27;;;;;;;5.40;3.20;;;5.30;99.90;;;;;;5114079;28;20409;-74
2024/01/02 11:14:54;;;;;;;3.63;3.03;;;5.30;99.90;;;;;;5112978;28;20489;-75
2024/01/02 11:17:20;;;;;;;3.27;3.00;;;5.30;99.90;;;;;;5112484;28;20934;-74
2024/01/02 11:20:01;;;;;;;5.37;3.30;;;5.30;99.90;;;;;;5112185;28;20444;-74
2024/01/02 11:23:08;;;;;;;4.17;3.03;;;5.30;99.90;;;;;;5097096;28;21000;-73
2024/01/02 11:25:38;;;;;;;6.73;3.23;;;5.30;99.90;;;;;;5092706;28;20494;-73
2024/01/02 11:28:06;;;;;;;5.20;3.37;;;5.30;99.90;;;;;;5092722;28;21129;-73
2024/01/02 11:30:36;;;;;;;4.00;3.40;;;5.40;99.90;;;;;;5092025;28;20776;-74
2024/01/02 11:33:25;;;;;;;4.63;3.00;;;5.40;99.90;;;;;;5093057;28;20399;-75
2024/01/02 11:36:29;;;;;;;3.60;2.80;;;5.40;99.90;;;;;;5092076;28;20911;-73
2024/01/02 11:39:01;;;;;;;4.53;3.53;;;5.40;99.90;;;;;;5086356;28;20440;-75
2024/01/02 11:42:04;;;;;;;2.77;2.40;;;5.30;99.90;;;;;;5072907;28;20403;-74
2024/01/02 11:44:51;;;;;;;3.97;2.60;;;5.30;99.90;;;;;;5081226;28;20487;-78
2024/01/02 11:47:45;;;;;;;6.37;3.07;;;5.40;99.90;;;;;;5077147;28;20413;-74
2024/01/02 11:50:15;;;;;;;2.63;2.53;;;5.40;99.90;;;;;;5083756;28;20415;-75
2024/01/02 11:52:49;;;;;;;2.57;2.37;;;5.40;99.90;;;;;;5091195;28;20943;-74
2024/01/02 11:55:39;;;;;;;6.13;3.30;;;5.30;99.90;;;;;;5074356;28;20450;-74
2024/01/02 11:58:48;;;;;;;5.00;2.50;;;5.30;99.90;;;;;;5077118;28;20427;-74
2024/01/02 12:01:38;;;;;;;3.67;3.27;;;5.20;99.90;;;;;;5074877;28;20440;-74
2024/01/02 12:04:29;;;;;;;5.13;3.30;;;5.30;99.90;;;;;;5075037;28;20471;-74
2024/01/02 12:07:12;;;;;;;2.83;2.60;;;5.30;99.90;;;;;;5104385;28;20401;-72
2024/01/02 12:09:42;;;;;;;6.60;3.00;;;5.20;99.90;;;;;;5113106;28;20445;-72
2024/01/02 12:12:16;;;;;;;4.70;3.23;;;5.20;99.90;;;;;;5111753;28;20421;-74
2024/01/02 12:15:11;;;;;;;4.13;3.03;;;5.20;99.90;;;;;;5111881;28;20398;-73
2024/01/02 12:18:00;;;;;;;6.60;2.63;;;5.20;99.90;;;;;;5111770;28;20480;-71
2024/01/02 12:20:32;;;;;;;4.27;2.50;;;5.20;99.90;;;;;;5109273;28;20488;-74
2024/01/02 12:22:59;;;;;;;3.17;2.87;;;5.10;99.90;;;;;;5092886;28;20461;-72
2024/01/02 12:25:25;;;;;;;3.10;2.90;;;5.10;99.90;;;;;;5092034;28;20439;-71
2024/01/02 12:27:53;;;;;;;3.07;2.87;;;5.10;99.90;;;;;;5092419;28;20490;-72
2024/01/02 12:30:24;;;;;;;4.30;2.70;;;5.10;99.90;;;;;;5092561;28;20401;-72
2024/01/02 12:32:50;;;;;;;4.30;2.73;;;5.10;99.90;;;;;;5092474;28;20402;-72
2024/01/02 12:35:40;;;;;;;2.67;2.47;;;5.10;1.00;;;;;;5109746;28;20763;-73
2024/01/02 12:38:17;;;;;;;2.80;2.60;;;5.10;1.00;;;;;;5072517;28;20216;-72
2024/01/02 12:40:46;;;;;;;3.63;2.90;;;5.10;1.00;;;;;;5072638;28;20403;-72
2024/01/02 12:43:17;;;;;;;4.50;3.57;;;5.10;1.00;;;;;;5072544;28;20466;-72
2024/01/02 12:45:46;;;;;;;3.30;2.97;;;5.20;1.00;;;;;;5071430;28;20493;-73
2024/01/02 12:48:17;;;;;;;4.83;3.37;;;5.10;1.00;;;;;;5082539;28;20514;-72
2024/01/02 12:50:49;;;;;;;6.53;2.97;;;5.20;1.00;;;;;;5115152;28;20399;-73
2024/01/02 12:53:17;;;;;;;4.33;2.97;;;5.20;1.00;;;;;;5075633;28;20491;-72
2024/01/02 12:55:57;;;;;;;3.67;2.73;;;5.20;1.00;;;;;;5074960;28;20411;-72
2024/01/02 12:58:29;;;;;;;3.20;2.90;;;5.20;1.00;;;;;;5093400;28;20421;-72
2024/01/02 13:00:55;;;;;;;4.03;3.10;;;5.20;1.00;;;;;;5096004;28;20450;-71